Time;durP1;ratioP1;P1;durP2;ratioP2;P2;SDS_P1;SDS_P2;PMS_P1;PMS_P2;Temp;Humidity;BMP_temperature;BMP_pressure;BME280_temperature;BME280_humidity;BME280_pressure;Samples;Min_cycle;Max_cycle;Signal;HPM_P1;HPM_P2
2022/09/29 00:02:01;;;;;;;19.27;10.45;;;;;;;4.60;100.00;99956.81;5279961;28;20039;-74
2022/09/29 00:04:31;;;;;;;19.90;9.85;;;;;;;4.60;100.00;99962.13;5260762;28;20016;-73
2022/09/29 00:07:02;;;;;;;19.48;10.30;;;;;;;4.59;100.00;99960.47;5277189;28;20020;-73
2022/09/29 00:09:32;;;;;;;18.52;10.57;;;;;;;4.54;100.00;99960.09;5286475;27;20031;-72
2022/09/29 00:12:03;;;;;;;16.92;10.40;;;;;;;4.49;100.00;99963.19;5277480;28;20483;-72
2022/09/29 00:14:33;;;;;;;20.17;10.23;;;;;;;4.45;100.00;99964.47;5270460;28;20537;-73
2022/09/29 00:17:04;;;;;;;21.30;9.65;;;;;;;4.42;100.00;99962.13;5266880;28;20051;-74
2022/09/29 00:19:34;;;;;;;13.13;8.73;;;;;;;4.39;100.00;99957.09;5286377;28;20058;-73
2022/09/29 00:22:05;;;;;;;18.00;9.60;;;;;;;4.35;100.00;99950.41;5276497;28;20051;-73
2022/09/29 00:24:35;;;;;;;49.17;10.25;;;;;;;4.29;100.00;99949.16;5280080;28;20031;-73
2022/09/29 00:27:06;;;;;;;14.05;8.27;;;;;;;4.27;100.00;99963.59;5270906;28;20016;-70
2022/09/29 00:29:36;;;;;;;17.25;8.75;;;;;;;4.31;100.00;99949.84;5274678;28;20433;-70
2022/09/29 00:32:06;;;;;;;19.75;9.95;;;;;;;4.34;100.00;99946.06;5281975;28;20458;-71
2022/09/29 00:34:37;;;;;;;16.33;10.27;;;;;;;4.33;100.00;99947.91;5277595;28;20091;-70
2022/09/29 00:37:08;;;;;;;19.85;9.27;;;;;;;4.30;100.00;99956.16;5253329;28;20326;-71
2022/09/29 00:39:38;;;;;;;17.00;9.25;;;;;;;4.31;100.00;99949.84;5267168;28;20769;-70
2022/09/29 00:42:11;;;;;;;17.65;9.60;;;;;;;4.31;100.00;99954.31;5266996;28;20082;-70
2022/09/29 00:44:58;;;;;;;14.63;9.10;;;;;;;4.25;100.00;99961.06;5278489;28;20089;-70
2022/09/29 00:47:30;;;;;;;17.95;8.85;;;;;;;4.23;100.00;99957.72;5288434;28;20027;-71
2022/09/29 00:50:03;;;;;;;20.27;11.60;;;;;;;4.24;100.00;99966.53;5285298;28;20385;-71
2022/09/29 00:52:43;;;;;;;19.27;10.00;;;;;;;4.21;100.00;99959.69;5277412;28;20024;-72
2022/09/29 00:55:33;;;;;;;15.68;9.68;;;;;;;4.16;100.00;99952.16;5264296;28;20055;-71
2022/09/29 00:58:38;;;;;;;18.83;10.75;;;;;;;4.11;100.00;99957.06;5282610;28;20298;-71
2022/09/29 01:01:12;;;;;;;15.57;9.55;;;;;;;4.06;100.00;99954.00;5278705;28;20050;-70
2022/09/29 01:03:46;;;;;;;63.83;13.02;;;;;;;4.04;100.00;99957.81;5265226;28;20024;-70
2022/09/29 01:06:35;;;;;;;18.33;10.38;;;;;;;3.99;100.00;99960.06;5266167;28;20024;-70
2022/09/29 01:09:09;;;;;;;14.07;9.05;;;;;;;3.98;100.00;99959.25;5279771;28;20023;-71
2022/09/29 01:11:41;;;;;;;17.17;9.40;;;;;;;3.97;100.00;99962.03;5280107;28;20027;-71
2022/09/29 01:14:12;;;;;;;25.60;11.57;;;;;;;3.96;100.00;99960.34;5266081;28;20035;-71
2022/09/29 01:16:43;;;;;;;22.23;11.13;;;;;;;3.98;100.00;99961.06;5275492;28;20032;-72
2022/09/29 01:19:20;;;;;;;16.02;9.70;;;;;;;3.98;100.00;99963.72;5270912;28;20053;-71
2022/09/29 01:22:30;;;;;;;39.88;7.55;;;;;;;3.94;100.00;99954.38;5266801;28;20037;-71
2022/09/29 01:25:08;;;;;;;29.90;10.05;;;;;;;3.87;100.00;99965.56;5254708;28;20144;-71
2022/09/29 01:27:44;;;;;;;24.73;10.18;;;;;;;3.82;100.00;99956.38;5273398;28;20026;-72
2022/09/29 01:30:42;;;;;;;26.73;11.60;;;;;;;3.77;100.00;99962.09;5274243;28;20063;-72
2022/09/29 01:33:31;;;;;;;22.90;11.85;;;;;;;3.72;100.00;99956.41;5272234;28;20032;-71
2022/09/29 01:36:26;;;;;;;16.58;8.70;;;;;;;3.72;100.00;99956.41;5258334;28;20501;-71
2022/09/29 01:39:28;;;;;;;17.13;9.68;;;;;;;3.73;100.00;99960.72;5281777;28;20110;-71
2022/09/29 01:42:18;;;;;;;17.30;10.35;;;;;;;3.73;100.00;99960.72;5272795;28;20063;-71
2022/09/29 01:45:02;;;;;;;16.73;9.65;;;;;;;3.70;100.00;99957.50;5285974;28;20055;-72
2022/09/29 01:47:40;;;;;;;19.88;9.88;;;;;;;3.69;100.00;99969.09;5261856;28;20027;-71
2022/09/29 01:50:20;;;;;;;25.30;11.68;;;;;;;3.66;100.00;99964.91;5273279;28;20043;-71
2022/09/29 01:53:03;;;;;;;47.28;13.25;;;;;;;3.61;100.00;99962.72;5284477;28;20027;-71
2022/09/29 01:55:46;;;;;;;25.92;13.25;;;;;;;3.56;100.00;99970.22;5261608;28;20100;-70
2022/09/29 01:58:24;;;;;;;20.83;11.93;;;;;;;3.54;100.00;99961.59;5283129;28;20527;-71
2022/09/29 02:01:00;;;;;;;20.65;11.25;;;;;;;3.53;100.00;99959.91;5278019;28;20107;-71
2022/09/29 02:03:47;;;;;;;16.60;9.20;;;;;;;3.52;100.00;99957.41;5265062;28;20098;-71
2022/09/29 02:06:27;;;;;;;19.80;10.00;;;;;;;3.51;100.00;99961.03;5267857;28;20027;-71
2022/09/29 02:09:02;;;;;;;15.43;8.82;;;;;;;3.49;100.00;99965.66;5286347;28;20031;-71
2022/09/29 02:11:37;;;;;;;132.80;12.95;;;;;;;3.46;100.00;99969.41;5280386;28;20110;-71
2022/09/29 02:14:15;;;;;;;9.50;6.53;;;;;;;3.42;100.00;99964.56;5278605;28;20022;-71
2022/09/29 02:16:54;;;;;;;14.18;8.80;;;;;;;3.38;100.00;99967.47;5265597;28;20016;-72
2022/09/29 02:19:28;;;;;;;16.70;9.23;;;;;;;3.39;100.00;99968.31;5269732;28;20030;-71
2022/09/29 02:21:59;;;;;;;15.48;8.57;;;;;;;3.41;100.00;99965.50;5286470;28;20034;-72
2022/09/29 02:24:30;;;;;;;16.67;9.77;;;;;;;3.44;100.00;99973.19;5285866;28;20027;-72
2022/09/29 02:27:01;;;;;;;20.13;9.15;;;;;;;3.44;100.00;99976.69;5277385;28;20435;-73
2022/09/29 02:29:34;;;;;;;32.60;8.90;;;;;;;3.37;100.00;99971.13;5279236;28;20348;-71
2022/09/29 02:32:08;;;;;;;15.88;9.57;;;;;;;3.33;100.00;99964.41;5265293;28;20020;-71
2022/09/29 02:34:44;;;;;;;14.43;8.63;;;;;;;3.32;100.00;99967.22;5264651;28;20020;-71
2022/09/29 02:37:54;;;;;;;16.55;9.35;;;;;;;3.26;100.00;99958.00;5254948;28;20016;-71
2022/09/29 02:41:00;;;;;;;15.95;9.30;;;;;;;3.25;100.00;99968.75;5264692;28;20050;-72
2022/09/29 02:43:42;;;;;;;21.58;10.60;;;;;;;3.25;100.00;99966.09;5272820;28;20391;-71
2022/09/29 02:46:27;;;;;;;38.05;11.52;;;;;;;3.20;100.00;99957.72;5273955;28;20028;-72
2022/09/29 02:49:14;;;;;;;21.92;11.38;;;;;;;3.15;100.00;99959.94;5265430;28;20071;-71
2022/09/29 02:52:00;;;;;;;55.40;15.38;;;;;;;3.12;100.00;99955.78;5279495;28;20020;-71
2022/09/29 02:54:46;;;;;;;171.50;17.30;;;;;;;3.11;100.00;99954.09;5277349;28;20077;-71
2022/09/29 02:57:47;;;;;;;81.45;13.43;;;;;;;3.04;100.00;99953.81;5288347;28;20023;-71
2022/09/29 03:00:19;;;;;;;25.35;12.65;;;;;;;3.02;100.00;99958.44;5270289;28;20027;-72
2022/09/29 03:02:49;;;;;;;27.65;12.77;;;;;;;3.02;100.00;99955.78;5267720;28;20029;-70
2022/09/29 03:05:21;;;;;;;19.90;10.65;;;;;;;3.04;100.00;99958.28;5269415;28;20026;-71
2022/09/29 03:07:52;;;;;;;21.25;12.10;;;;;;;3.07;100.00;99961.50;5269909;28;20020;-71
2022/09/29 03:10:22;;;;;;;25.75;12.07;;;;;;;3.09;100.00;99961.34;5270111;28;20039;-72
2022/09/29 03:12:52;;;;;;;19.73;11.98;;;;;;;3.06;100.00;99961.63;5274752;28;20480;-70
2022/09/29 03:15:23;;;;;;;18.48;10.68;;;;;;;3.04;100.00;99960.94;5279853;28;20020;-71
2022/09/29 03:17:57;;;;;;;20.55;11.18;;;;;;;3.03;100.00;99961.91;5273612;28;20102;-71
2022/09/29 03:20:28;;;;;;;42.38;12.93;;;;;;;3.00;100.00;99956.88;5289961;28;20426;-70
2022/09/29 03:22:58;;;;;;;23.98;9.65;;;;;;;2.96;100.00;99963.44;5276219;28;20015;-70
2022/09/29 03:25:29;;;;;;;30.98;12.15;;;;;;;2.94;100.00;99965.41;5288967;27;20019;-71
2022/09/29 03:27:59;;;;;;;76.75;14.48;;;;;;;2.90;100.00;99964.00;5272865;28;20019;-70
2022/09/29 03:30:30;;;;;;;27.73;11.57;;;;;;;2.89;100.00;99965.81;5275788;28;20051;-71
2022/09/29 03:33:00;;;;;;;25.45;13.13;;;;;;;2.84;100.00;99960.94;5274601;28;20098;-71
2022/09/29 03:35:31;;;;;;;30.05;15.00;;;;;;;2.81;100.00;99965.66;5271816;28;20461;-70
2022/09/29 03:38:02;;;;;;;30.42;14.45;;;;;;;2.80;100.00;99963.97;5278794;28;20508;-71
2022/09/29 03:40:32;;;;;;;28.83;14.32;;;;;;;2.82;100.00;99964.69;5289466;28;20051;-71
2022/09/29 03:43:02;;;;;;;32.67;15.70;;;;;;;2.81;100.00;99961.22;5277634;28;20031;-71
2022/09/29 03:45:33;;;;;;;26.13;13.60;;;;;;;2.80;100.00;99964.81;5281883;28;20012;-70
2022/09/29 03:48:03;;;;;;;25.50;12.50;;;;;;;2.80;100.00;99972.75;5281605;28;20124;-70
2022/09/29 03:50:34;;;;;;;20.75;11.20;;;;;;;2.79;100.00;99968.44;5254879;28;20489;-71
2022/09/29 03:53:05;;;;;;;19.98;11.65;;;;;;;2.82;100.00;99968.19;5278350;28;20482;-71
2022/09/29 03:55:35;;;;;;;20.92;11.40;;;;;;;2.83;100.00;99971.66;5280726;28;20020;-71
2022/09/29 03:58:06;;;;;;;41.72;11.70;;;;;;;2.84;100.00;99968.88;5283528;28;20069;-71
2022/09/29 04:00:36;;;;;;;23.27;12.43;;;;;;;2.83;100.00;99966.38;5288922;28;20027;-72
2022/09/29 04:03:07;;;;;;;27.67;13.13;;;;;;;2.85;100.00;99975.00;5272865;28;20106;-71
2022/09/29 04:05:38;;;;;;;22.63;12.57;;;;;;;2.81;100.00;99966.50;5287175;28;20031;-71
2022/09/29 04:08:09;;;;;;;23.67;12.30;;;;;;;2.76;100.00;99973.16;5288398;28;20477;-70
2022/09/29 04:10:40;;;;;;;19.45;11.07;;;;;;;2.78;100.00;99976.53;5277666;28;20024;-71
2022/09/29 04:13:10;;;;;;;21.75;12.20;;;;;;;2.78;100.00;99977.38;5287196;28;20350;-71
2022/09/29 04:15:41;;;;;;;25.65;12.07;;;;;;;2.69;100.00;99975.53;5275258;28;20020;-71
2022/09/29 04:18:11;;;;;;;324.42;26.52;;;;;;;2.60;100.00;99977.19;5281793;28;20028;-71
2022/09/29 04:20:42;;;;;;;325.63;25.13;;;;;;;2.54;100.00;99976.91;5281808;28;20114;-71
2022/09/29 04:23:12;;;;;;;44.17;13.27;;;;;;;2.47;100.00;99979.28;5281607;28;20111;-71
2022/09/29 04:25:44;;;;;;;25.58;12.98;;;;;;;2.45;100.00;99978.56;5268015;28;20056;-70
2022/09/29 04:28:15;;;;;;;22.67;12.77;;;;;;;2.46;100.00;99980.25;5268974;28;20454;-71
2022/09/29 04:30:45;;;;;;;22.50;11.80;;;;;;;2.49;100.00;99979.97;5267159;28;20059;-73
2022/09/29 04:33:16;;;;;;;26.08;12.50;;;;;;;2.52;100.00;99985.00;5277997;28;20051;-72
2022/09/29 04:35:46;;;;;;;27.75;12.32;;;;;;;2.52;100.00;99984.16;5264476;27;20013;-71
2022/09/29 04:38:17;;;;;;;21.08;11.63;;;;;;;2.53;100.00;99985.84;5259229;28;20027;-71
2022/09/29 04:40:47;;;;;;;37.60;10.13;;;;;;;2.50;100.00;99986.09;5273425;28;20066;-71
2022/09/29 04:43:18;;;;;;;46.10;11.77;;;;;;;2.45;100.00;99985.66;5274401;28;20047;-71
2022/09/29 04:45:49;;;;;;;172.23;18.27;;;;;;;2.42;100.00;99984.13;5274265;28;20110;-71
2022/09/29 04:48:19;;;;;;;133.27;16.30;;;;;;;2.39;100.00;99989.69;5274653;28;20034;-70
2022/09/29 04:50:51;;;;;;;65.53;12.73;;;;;;;2.38;100.00;99997.78;5279083;28;20035;-71
2022/09/29 04:53:21;;;;;;;21.63;11.38;;;;;;;2.40;100.00;99998.47;5269834;28;20136;-71
2022/09/29 04:55:52;;;;;;;76.93;13.73;;;;;;;2.42;100.00;99996.53;5287550;28;20019;-71
2022/09/29 04:58:23;;;;;;;119.07;17.25;;;;;;;2.41;100.00;99995.69;5269671;28;20028;-71
2022/09/29 05:00:53;;;;;;;27.05;10.23;;;;;;;2.41;100.00;99992.19;5278665;28;20059;-71
2022/09/29 05:03:24;;;;;;;22.40;10.50;;;;;;;2.41;100.00;99998.34;5260960;28;20019;-72
2022/09/29 05:05:55;;;;;;;23.67;11.68;;;;;;;2.46;100.00;100004.06;5278537;28;20549;-71
2022/09/29 05:08:25;;;;;;;24.10;11.15;;;;;;;2.50;100.00;99994.03;5273860;28;20152;-71
2022/09/29 05:10:56;;;;;;;22.48;11.32;;;;;;;2.56;100.00;99993.47;5273290;28;20024;-72
2022/09/29 05:13:27;;;;;;;28.45;13.43;;;;;;;2.58;100.00;100000.34;5265800;28;20114;-70
2022/09/29 05:15:57;;;;;;;22.90;11.60;;;;;;;2.63;100.00;100007.88;5281940;28;20024;-71
2022/09/29 05:18:28;;;;;;;27.45;13.85;;;;;;;2.74;100.00;100010.41;5278038;28;20492;-70
2022/09/29 05:21:06;;;;;;;28.00;14.35;;;;;;;2.83;100.00;100014.88;5279598;28;20093;-71
2022/09/29 05:23:36;;;;;;;32.35;14.75;;;;;;;2.83;100.00;100014.06;5278838;28;20489;-72
2022/09/29 05:26:08;;;;;;;26.02;13.73;;;;;;;2.72;100.00;100009.72;5280846;28;20035;-72
2022/09/29 05:28:43;;;;;;;168.27;18.75;;;;;;;2.62;100.00;100013.31;5263097;28;20024;-71
2022/09/29 05:31:14;;;;;;;22.98;11.95;;;;;;;2.51;100.00;100023.03;5266428;28;20024;-71
2022/09/29 05:33:45;;;;;;;27.38;13.05;;;;;;;2.45;100.00;100023.56;5268526;28;20039;-72
2022/09/29 05:36:15;;;;;;;24.88;11.77;;;;;;;2.44;100.00;100026.34;5258789;28;20386;-71
2022/09/29 05:38:46;;;;;;;23.55;11.18;;;;;;;2.41;100.00;100022.19;5261845;28;20031;-71
2022/09/29 05:41:21;;;;;;;27.05;12.40;;;;;;;2.39;100.00;100026.75;5276645;28;20445;-71
2022/09/29 05:43:53;;;;;;;41.05;13.05;;;;;;;2.37;100.00;100026.06;5282216;28;20488;-70
2022/09/29 05:46:24;;;;;;;25.40;11.85;;;;;;;2.37;100.00;100028.69;5265476;28;20070;-69
2022/09/29 05:48:54;;;;;;;26.52;13.05;;;;;;;2.35;100.00;100030.63;5272225;28;20081;-69
2022/09/29 05:51:27;;;;;;;23.48;12.13;;;;;;;2.38;100.00;100032.19;5273280;28;20393;-70
2022/09/29 05:53:59;;;;;;;22.30;11.40;;;;;;;2.41;100.00;100037.19;5275011;28;20028;-69
2022/09/29 05:56:29;;;;;;;25.45;13.27;;;;;;;2.43;100.00;100038.75;5281249;28;20011;-70
2022/09/29 05:59:00;;;;;;;20.48;10.90;;;;;;;2.43;100.00;100040.56;5276870;28;20024;-69
2022/09/29 06:01:31;;;;;;;27.52;14.20;;;;;;;2.45;100.00;100046.56;5269604;28;20564;-69
2022/09/29 06:04:02;;;;;;;33.50;16.23;;;;;;;2.46;100.00;100040.28;5271396;28;20023;-70
2022/09/29 06:06:35;;;;;;;31.70;13.77;;;;;;;2.50;100.00;100039.88;5286028;28;20020;-69
2022/09/29 06:09:05;;;;;;;170.85;19.77;;;;;;;2.53;100.00;100050.22;5286860;28;20320;-69
2022/09/29 06:11:36;;;;;;;84.13;15.40;;;;;;;2.55;100.00;100045.59;5272892;28;20026;-69
2022/09/29 06:14:06;;;;;;;25.65;12.68;;;;;;;2.62;100.00;100053.03;5272813;28;20020;-69
2022/09/29 06:16:37;;;;;;;29.00;13.30;;;;;;;2.71;100.00;100052.22;5286173;28;20027;-69
2022/09/29 06:19:07;;;;;;;27.83;14.23;;;;;;;2.82;100.00;100050.31;5286512;28;20115;-69
2022/09/29 06:21:38;;;;;;;26.08;13.10;;;;;;;2.91;100.00;100051.28;5286652;28;20103;-69
2022/09/29 06:24:09;;;;;;;29.23;14.02;;;;;;;3.04;100.00;100056.34;5285961;28;20515;-70
2022/09/29 06:26:39;;;;;;;28.17;14.38;;;;;;;3.13;100.00;100062.63;5273980;28;20026;-70
2022/09/29 06:29:10;;;;;;;31.48;15.10;;;;;;;3.28;100.00;100063.91;5265105;28;20409;-69
2022/09/29 06:31:40;;;;;;;26.48;13.43;;;;;;;3.53;100.00;100068.66;5275367;28;20024;-69
2022/09/29 06:34:11;;;;;;;23.67;11.38;;;;;;;3.78;100.00;100064.59;5263110;28;20028;-69
2022/09/29 06:39:32;;;;;;;18.27;10.15;;;;;;;4.34;100.00;100087.66;5263400;28;20086;-70
2022/09/29 06:42:03;;;;;;;18.27;11.52;;;;;;;4.65;100.00;100090.03;5272725;28;20047;-70
2022/09/29 06:44:33;;;;;;;20.52;9.60;;;;;;;5.02;100.00;100087.34;5285606;28;20151;-69
2022/09/29 06:47:04;;;;;;;16.35;8.40;;;;;;;5.54;100.00;100082.22;5254169;28;20036;-70
2022/09/29 06:49:34;;;;;;;13.38;8.30;;;;;;;6.23;100.00;100089.47;5269087;28;20031;-71
2022/09/29 06:52:04;;;;;;;13.52;7.50;;;;;;;6.95;100.00;100095.31;5284135;28;20023;-70
2022/09/29 06:54:35;;;;;;;17.98;8.77;;;;;;;7.45;100.00;100090.94;5266471;28;20423;-71
2022/09/29 06:57:05;;;;;;;9.75;5.97;;;;;;;7.69;100.00;100084.81;5262577;28;20043;-70
2022/09/29 06:59:36;;;;;;;12.07;7.07;;;;;;;8.01;100.00;100083.97;5263339;28;20024;-70
2022/09/29 07:02:09;;;;;;;14.25;7.80;;;;;;;8.34;100.00;100082.09;5260893;28;20027;-70
2022/09/29 07:04:39;;;;;;;17.25;7.90;;;;;;;8.86;100.00;100086.13;5271084;28;20520;-71
2022/09/29 07:07:09;;;;;;;19.60;7.43;;;;;;;9.33;100.00;100086.03;5262804;28;20031;-70
2022/09/29 07:09:41;;;;;;;15.85;7.25;;;;;;;9.72;100.00;100087.78;5263469;28;20024;-70
2022/09/29 07:12:12;;;;;;;13.18;6.60;;;;;;;10.23;100.00;100096.06;5263362;28;20028;-70
2022/09/29 07:14:42;;;;;;;11.35;7.47;;;;;;;10.57;100.00;100090.22;5262384;28;20024;-71
2022/09/29 07:17:13;;;;;;;12.60;6.78;;;;;;;10.81;100.00;100095.31;5262630;28;20374;-71
2022/09/29 07:19:44;;;;;;;11.23;6.80;;;;;;;11.15;100.00;100096.56;5282753;28;20027;-71
2022/09/29 07:22:16;;;;;;;10.73;7.03;;;;;;;11.36;100.00;100093.91;5271135;28;20027;-71
2022/09/29 07:24:47;;;;;;;14.23;6.32;;;;;;;11.45;100.00;100101.88;5252522;28;20404;-70
2022/09/29 07:27:22;;;;;;;11.80;6.57;;;;;;;11.54;100.00;100098.84;5272526;28;20393;-70
2022/09/29 07:29:53;;;;;;;11.60;6.68;;;;;;;11.66;100.00;100102.72;5273998;28;20205;-70
2022/09/29 07:32:25;;;;;;;17.25;6.85;;;;;;;11.54;100.00;100100.69;5275617;28;20033;-71
2022/09/29 07:34:56;;;;;;;14.65;7.28;;;;;;;11.47;100.00;100107.88;5262357;28;20020;-71
2022/09/29 07:37:27;;;;;;;13.45;6.88;;;;;;;11.65;100.00;100105.59;5254593;28;20531;-71
2022/09/29 07:39:58;;;;;;;13.40;7.20;;;;;;;11.89;100.00;100105.22;5269810;28;20396;-71
2022/09/29 07:42:28;;;;;;;14.88;6.65;;;;;;;12.17;100.00;100107.13;5270948;28;20547;-72
2022/09/29 07:44:59;;;;;;;16.73;7.70;;;;;;;12.61;100.00;100104.13;5273738;28;20024;-71
2022/09/29 07:47:30;;;;;;;11.50;5.97;;;;;;;12.64;100.00;100117.19;5276935;28;20489;-71
2022/09/29 07:50:00;;;;;;;14.40;6.22;;;;;;;13.05;100.00;100119.09;5282763;28;20349;-72
2022/09/29 07:52:31;;;;;;;13.77;6.68;;;;;;;12.83;100.00;100121.03;5276587;28;20035;-72
2022/09/29 07:55:02;;;;;;;14.32;6.50;;;;;;;12.92;100.00;100125.22;5274704;28;20035;-71
2022/09/29 07:57:33;;;;;;;11.40;6.35;;;;;;;13.32;100.00;100122.75;5265057;28;20016;-72
2022/09/29 08:00:03;;;;;;;14.18;6.72;;;;;;;13.34;100.00;100127.91;5273401;28;20059;-72
2022/09/29 08:02:34;;;;;;;14.68;6.30;;;;;;;13.17;100.00;100128.25;5266085;27;20052;-72
2022/09/29 08:05:05;;;;;;;10.52;6.55;;;;;;;13.26;100.00;100141.56;5267712;28;20119;-72
2022/09/29 08:07:35;;;;;;;11.23;7.03;;;;;;;13.12;100.00;100144.16;5264343;28;20028;-71
2022/09/29 08:10:06;;;;;;;15.38;7.13;;;;;;;13.25;100.00;100140.72;5274527;28;20080;-72
2022/09/29 08:12:36;;;;;;;13.35;7.28;;;;;;;13.41;100.00;100147.66;5270311;28;20028;-72
2022/09/29 08:15:07;;;;;;;16.50;7.10;;;;;;;13.79;100.00;100149.81;5274411;28;20023;-71
2022/09/29 08:17:37;;;;;;;12.38;6.50;;;;;;;13.96;100.00;100148.41;5282676;28;20035;-72
2022/09/29 08:20:08;;;;;;;13.90;7.00;;;;;;;14.09;100.00;100150.28;5265498;28;20395;-71
2022/09/29 08:22:38;;;;;;;17.02;6.88;;;;;;;14.32;100.00;100145.31;5269898;28;20064;-72
2022/09/29 08:25:09;;;;;;;13.25;6.82;;;;;;;14.74;100.00;100162.13;5274820;28;20034;-72
2022/09/29 08:27:39;;;;;;;11.68;6.07;;;;;;;14.74;100.00;100154.84;5266696;28;20039;-71
2022/09/29 08:30:11;;;;;;;10.95;6.25;;;;;;;14.65;100.00;100149.88;5273992;27;20051;-72
2022/09/29 08:32:41;;;;;;;11.45;6.45;;;;;;;14.71;100.00;100151.78;5265549;28;20028;-71
2022/09/29 08:35:12;;;;;;;13.50;6.80;;;;;;;14.88;100.00;100162.94;5264790;28;20475;-71
2022/09/29 08:37:42;;;;;;;17.27;6.13;;;;;;;15.11;100.00;100163.31;5260026;28;20301;-72
2022/09/29 08:40:13;;;;;;;12.30;6.35;;;;;;;15.25;100.00;100175.72;5285782;28;20476;-72
2022/09/29 08:43:02;;;;;;;12.43;6.35;;;;;;;15.53;100.00;100175.41;5277986;27;20024;-72
2022/09/29 08:45:39;;;;;;;12.70;5.93;;;;;;;15.85;100.00;100174.66;5270213;28;20606;-72
2022/09/29 08:48:16;;;;;;;10.43;6.35;;;;;;;15.61;100.00;100177.00;5272878;28;20027;-71
2022/09/29 08:50:57;;;;;;;10.60;6.25;;;;;;;15.95;100.00;100178.53;5265090;28;20152;-71
2022/09/29 08:53:33;;;;;;;11.45;6.38;;;;;;;16.08;100.00;100182.22;5269227;28;20409;-72
2022/09/29 08:56:15;;;;;;;9.85;5.03;;;;;;;16.61;100.00;100170.97;5272548;28;20024;-71
2022/09/29 08:58:46;;;;;;;9.75;5.15;;;;;;;17.15;100.00;100185.66;5272245;28;20102;-72
2022/09/29 09:01:59;;;;;;;11.95;6.65;;;;;;;17.07;100.00;100178.69;5270868;28;20130;-72
2022/09/29 09:04:59;;;;;;;8.23;5.45;;;;;;;16.54;100.00;100184.56;5259658;28;20016;-72
2022/09/29 09:08:01;;;;;;;12.23;6.10;;;;;;;16.39;100.00;100184.91;5285612;28;20111;-72
2022/09/29 09:10:48;;;;;;;10.20;5.32;;;;;;;16.47;100.00;100187.34;5262904;28;20450;-72
2022/09/29 09:13:47;;;;;;;8.95;5.68;;;;;;;16.51;100.00;100188.53;5286341;28;20262;-72
2022/09/29 09:16:39;;;;;;;10.60;5.30;;;;;;;16.67;100.00;100195.28;5264970;28;20020;-72
2022/09/29 09:19:30;;;;;;;8.65;5.28;;;;;;;16.78;100.00;100191.88;5273349;28;20114;-72
2022/09/29 09:22:19;;;;;;;10.75;5.72;;;;;;;16.81;100.00;100196.00;5267779;28;20028;-72
2022/09/29 09:25:06;;;;;;;10.93;5.78;;;;;;;16.93;100.00;100190.72;5274062;28;20418;-72
2022/09/29 09:27:42;;;;;;;8.15;5.18;;;;;;;17.00;100.00;100196.88;5276199;28;20110;-73
2022/09/29 09:30:16;;;;;;;7.32;4.85;;;;;;;17.11;100.00;100198.84;5270843;28;20015;-72
2022/09/29 09:32:53;;;;;;;10.18;4.72;;;;;;;16.68;100.00;100199.66;5276709;28;20380;-72
2022/09/29 09:35:40;;;;;;;8.02;4.22;;;;;;;16.90;100.00;100199.28;5274465;28;20011;-72
2022/09/29 09:38:26;;;;;;;6.97;4.18;;;;;;;17.02;100.00;100206.47;5276395;28;20112;-72
2022/09/29 09:40:59;;;;;;;7.47;4.10;;;;;;;16.89;100.00;100206.56;5270212;28;20059;-72
2022/09/29 09:43:47;;;;;;;6.60;4.32;;;;;;;16.39;100.00;100200.31;5279241;28;20030;-72
2022/09/29 09:46:32;;;;;;;10.18;4.57;;;;;;;16.46;100.00;100206.50;5272190;27;20393;-72
2022/09/29 09:49:02;;;;;;;8.50;4.53;;;;;;;16.66;100.00;100200.91;5266090;28;20361;-72
2022/09/29 09:51:44;;;;;;;9.48;4.80;;;;;;;16.79;100.00;100206.25;5263706;28;20039;-73
2022/09/29 09:54:28;;;;;;;5.65;4.25;;;;;;;16.80;100.00;100206.03;5267718;28;20027;-72
2022/09/29 09:56:58;;;;;;;7.60;3.85;;;;;;;16.79;100.00;100203.53;5269901;28;20018;-72
2022/09/29 09:59:49;;;;;;;7.57;4.15;;;;;;;16.81;100.00;100204.13;5268771;28;20023;-73
2022/09/29 10:02:21;;;;;;;8.40;4.45;;;;;;;16.76;100.00;100209.41;5269447;28;20512;-73
2022/09/29 10:04:53;;;;;;;7.55;4.18;;;;;;;16.92;100.00;100210.69;5273644;28;20401;-72
2022/09/29 10:07:26;;;;;;;10.15;4.05;;;;;;;16.90;100.00;100212.81;5270143;28;20019;-72
2022/09/29 10:10:02;;;;;;;9.15;4.20;;;;;;;16.80;100.00;100206.03;5264021;28;20134;-72
2022/09/29 10:12:33;;;;;;;6.38;3.38;;;;;;;17.00;100.00;100213.13;5270933;28;20024;-72
2022/09/29 10:15:16;;;;;;;6.50;3.50;;;;;;;16.98;100.00;100212.53;5274151;28;20027;-72
2022/09/29 10:17:55;;;;;;;8.07;3.92;;;;;;;16.80;100.00;100208.72;5269002;28;20027;-72
2022/09/29 10:20:33;;;;;;;7.20;3.75;;;;;;;16.81;100.00;100213.09;5272180;28;20030;-72
2022/09/29 10:23:33;;;;;;;7.70;3.95;;;;;;;16.71;100.00;100206.50;5271907;28;20031;-72
2022/09/29 10:26:24;;;;;;;9.50;3.53;;;;;;;16.47;100.00;100210.88;5267383;28;20030;-73
2022/09/29 10:29:16;;;;;;;9.30;4.13;;;;;;;16.35;100.00;100204.50;5270560;28;20389;-72
2022/09/29 10:32:00;;;;;;;6.88;3.67;;;;;;;16.53;100.00;100215.41;5265354;28;20020;-72
2022/09/29 10:34:33;;;;;;;8.10;3.90;;;;;;;16.61;100.00;100217.81;5276956;28;20036;-73
2022/09/29 10:37:32;;;;;;;4.93;2.92;;;;;;;16.89;100.00;100217.41;5259703;28;20553;-72
2022/09/29 10:40:13;;;;;;;7.15;3.53;;;;;;;17.06;100.00;100223.91;5275718;28;20032;-73
2022/09/29 10:42:47;;;;;;;7.05;3.53;;;;;;;17.27;100.00;100221.81;5269554;28;20085;-72
2022/09/29 10:45:22;;;;;;;6.82;3.67;;;;;;;17.11;100.00;100222.41;5268870;28;20505;-72
2022/09/29 10:47:56;;;;;;;6.65;3.35;;;;;;;16.91;100.00;100230.72;5261520;28;20055;-72
2022/09/29 10:50:28;;;;;;;6.40;4.22;;;;;;;17.00;100.00;100221.25;5270554;28;20016;-72
2022/09/29 10:53:03;;;;;;;4.80;2.85;;;;;;;17.48;100.00;100223.25;5277049;28;20385;-73
2022/09/29 10:55:46;;;;;;;6.20;2.97;;;;;;;17.71;100.00;100219.84;5261275;28;20463;-73
2022/09/29 10:58:28;;;;;;;5.03;3.15;;;;;;;17.75;100.00;100223.78;5268324;28;20016;-72
2022/09/29 11:01:09;;;;;;;6.43;3.40;;;;;;;17.92;100.00;100222.09;5264885;28;20092;-73
2022/09/29 11:03:48;;;;;;;7.10;3.70;;;;;;;18.04;100.00;100222.97;5268943;28;20031;-72
2022/09/29 11:06:28;;;;;;;5.93;2.40;;;;;;;17.68;100.00;100223.03;5273247;28;20084;-72
2022/09/29 11:09:05;;;;;;;7.72;2.80;;;;;;;17.23;100.00;100228.75;5269627;28;20500;-72
2022/09/29 11:11:38;;;;;;;7.60;2.95;;;;;;;17.45;100.00;100235.38;5273795;28;20031;-73
2022/09/29 11:14:23;;;;;;;7.05;2.67;;;;;;;17.67;100.00;100229.47;5274952;28;20058;-73
2022/09/29 11:16:56;;;;;;;;;;;;;;;17.67;100.00;100226.75;5264837;28;20385;-73
2022/09/29 11:19:29;;;;;;;5.05;2.08;;;;;;;17.85;100.00;100237.63;5275957;28;20324;-73
2022/09/29 11:22:31;;;;;;;7.47;2.38;;;;;;;18.19;100.00;100238.84;5269016;28;20488;-72
2022/09/29 11:25:12;;;;;;;5.05;2.53;;;;;;;18.11;100.00;100231.00;5276047;28;20473;-72
2022/09/29 11:27:55;;;;;;;8.07;2.70;;;;;;;18.00;100.00;100231.81;5274281;28;20028;-72
2022/09/29 11:30:39;;;;;;;3.58;1.85;;;;;;;17.67;100.00;100237.63;5273278;28;20023;-73
2022/09/29 11:33:26;;;;;;;5.75;4.35;;;;;;;17.25;100.00;100241.00;5271281;28;20020;-72
2022/09/29 11:36:20;;;;;;;7.57;4.80;;;;;;;16.90;100.00;100239.91;5268191;28;20385;-72
2022/09/29 11:39:11;;;;;;;3.95;1.92;;;;;;;16.63;100.00;100239.28;5269563;28;20107;-73
2022/09/29 11:41:53;;;;;;;5.57;2.30;;;;;;;16.48;100.00;100245.84;5273781;28;20058;-72
2022/09/29 11:44:43;;;;;;;2.78;1.80;;;;;;;16.20;100.00;100256.22;5267709;28;20063;-72
2022/09/29 11:47:44;;;;;;;6.18;2.00;;;;;;;15.91;100.00;100257.63;5276421;28;20047;-73
2022/09/29 11:50:30;;;;;;;6.93;2.22;;;;;;;15.69;100.00;100255.22;5276644;28;20393;-72
2022/09/29 11:53:30;;;;;;;4.90;1.90;;;;;;;15.98;100.00;100255.75;5267456;28;20477;-72
2022/09/29 11:56:11;;;;;;;4.50;1.70;;;;;;;16.42;100.00;100257.56;5274220;28;20016;-72
2022/09/29 11:59:13;;;;;;;5.55;1.80;;;;;;;16.60;100.00;100251.38;5268276;27;20085;-72
2022/09/29 12:02:02;;;;;;;3.05;1.17;;;;;;;17.02;100.00;100252.53;5270482;28;20115;-73